Time;durP1;ratioP1;P1;durP2;ratioP2;P2;SDS_P1;SDS_P2;PMS_P1;PMS_P2;Temp;Humidity;BMP_temperature;BMP_pressure;BME280_temperature;BME280_humidity;BME280_pressure;Samples;Min_cycle;Max_cycle;Signal;HPM_P1;HPM_P2
2022/07/08 00:00:38;;;;;;;1.40;1.40;;;;;;;;;;5014102;28;20408;-66
2022/07/08 00:03:04;;;;;;;1.10;1.10;;;;;;;;;;5013749;28;20485;-67
2022/07/08 00:05:30;;;;;;;3.60;1.30;;;;;;;;;;5013939;28;20397;-68
2022/07/08 00:07:56;;;;;;;1.47;1.37;;;;;;;;;;5013757;28;20471;-68
2022/07/08 00:10:22;;;;;;;2.00;1.43;;;;;;;;;;5013797;28;20420;-65
2022/07/08 00:12:48;;;;;;;2.50;1.37;;;;;;;;;;5014033;28;20501;-65
2022/07/08 00:15:14;;;;;;;1.77;1.20;;;;;;;;;;5013763;28;20409;-67
2022/07/08 00:17:40;;;;;;;1.97;1.63;;;;;;;;;;5013999;28;20450;-66
2022/07/08 00:20:07;;;;;;;1.70;1.60;;;;;;;;;;5013809;28;20486;-68
2022/07/08 00:22:33;;;;;;;1.77;1.77;;;;;;;;;;5013692;28;20830;-66
2022/07/08 00:24:59;;;;;;;1.80;1.70;;;;;;;;;;5013652;28;20775;-68
2022/07/08 00:27:25;;;;;;;1.67;1.57;;;;;;;;;;5013852;28;20468;-67
2022/07/08 00:29:51;;;;;;;1.80;1.70;;;;;;;;;;5013640;28;20916;-66
2022/07/08 00:32:18;;;;;;;1.70;1.60;;;;;;;;;;5013575;28;20410;-67
2022/07/08 00:34:44;;;;;;;1.93;1.83;;;;;;;;;;5013619;28;20779;-67
2022/07/08 00:37:10;;;;;;;1.90;1.80;;;;;;;;;;5013649;28;20406;-65
2022/07/08 00:39:37;;;;;;;1.70;1.60;;;;;;;;;;5013522;28;20462;-66
2022/07/08 00:42:03;;;;;;;1.57;1.57;;;;;;;;;;5013528;28;20433;-66
2022/07/08 00:44:29;;;;;;;5.03;1.77;;;;;;;;;;5013517;28;20405;-66
2022/07/08 00:46:55;;;;;;;3.70;2.40;;;;;;;;;;5014523;28;20526;-66
2022/07/08 00:49:21;;;;;;;2.17;1.77;;;;;;;;;;5017501;28;20402;-66
2022/07/08 00:51:48;;;;;;;1.60;1.60;;;;;;;;;;5017465;28;20448;-66
2022/07/08 00:54:15;;;;;;;2.30;1.80;;;;;;;;;;5017385;28;20413;-66
2022/07/08 00:56:41;;;;;;;2.03;1.93;;;;;;;;;;5017308;28;20457;-65
2022/07/08 00:59:09;;;;;;;1.70;1.70;;;;;;;;;;5017311;28;20413;-65
2022/07/08 01:01:35;;;;;;;2.00;1.90;;;;;;;;;;5017380;28;20540;-66
2022/07/08 01:04:01;;;;;;;1.90;1.80;;;;;;;;;;5017033;28;20798;-65
2022/07/08 01:06:27;;;;;;;1.63;1.63;;;;;;;;;;5017166;28;20467;-67
2022/07/08 01:08:53;;;;;;;2.10;2.00;;;;;;;;;;5017144;28;20425;-66
2022/07/08 01:11:19;;;;;;;2.93;2.47;;;;;;;;;;4999676;28;20423;-65
2022/07/08 01:13:45;;;;;;;1.83;1.73;;;;;;;;;;5017048;28;20428;-66
2022/07/08 01:16:11;;;;;;;1.83;1.83;;;;;;;;;;5017042;28;20503;-66
2022/07/08 01:18:37;;;;;;;2.20;1.73;;;;;;;;;;5016963;28;20426;-67
2022/07/08 01:21:03;;;;;;;1.73;1.73;;;;;;;;;;5016968;28;20918;-66
2022/07/08 01:23:29;;;;;;;1.70;1.60;;;;;;;;;;5016788;28;20485;-66
2022/07/08 01:25:56;;;;;;;3.13;1.80;;;;;;;;;;5016988;28;20883;-65
2022/07/08 01:28:22;;;;;;;5.80;1.83;;;;;;;;;;5016736;28;20424;-65
2022/07/08 01:30:48;;;;;;;2.00;2.00;;;;;;;;;;5016736;28;20412;-66
2022/07/08 01:33:14;;;;;;;2.40;2.40;;;;;;;;;;5016759;28;20887;-66
2022/07/08 01:35:40;;;;;;;1.97;1.97;;;;;;;;;;5016701;28;20397;-66
2022/07/08 01:38:06;;;;;;;1.80;1.80;;;;;;;;;;5016657;28;20404;-67
2022/07/08 01:40:32;;;;;;;2.17;1.87;;;;;;;;;;4998847;28;20773;-65
2022/07/08 01:42:58;;;;;;;2.00;1.90;;;;;;;;;;5016542;28;20409;-67
2022/07/08 01:45:24;;;;;;;3.50;2.13;;;;;;;;;;5016471;28;20405;-66
2022/07/08 01:47:50;;;;;;;2.00;2.00;;;;;;;;;;5016354;28;20521;-67
2022/07/08 01:50:16;;;;;;;2.50;2.33;;;;;;;;;;4998806;28;20511;-66
2022/07/08 01:52:42;;;;;;;3.67;2.37;;;;;;;;;;5016335;28;20900;-66
2022/07/08 01:55:08;;;;;;;2.20;2.20;;;;;;;;;;5016284;28;20843;-66
2022/07/08 01:57:34;;;;;;;2.73;2.07;;;;;;;;;;5016084;28;20412;-66
2022/07/08 02:00:00;;;;;;;2.73;2.53;;;;;;;;;;4997778;28;20417;-66
2022/07/08 02:02:26;;;;;;;1.90;1.90;;;;;;;;;;5016093;28;20931;-67
2022/07/08 02:04:52;;;;;;;1.93;1.93;;;;;;;;;;5016034;28;20562;-65
2022/07/08 02:07:19;;;;;;;1.90;1.90;;;;;;;;;;5016085;28;20478;-68
2022/07/08 02:09:45;;;;;;;2.23;2.13;;;;;;;;;;5015972;28;20425;-66
2022/07/08 02:12:20;;;;;;;1.63;1.63;;;;;;;;;;5016026;28;20417;-65
2022/07/08 02:14:47;;;;;;;1.57;1.57;;;;;;;;;;5016226;28;20420;-66
2022/07/08 02:17:14;;;;;;;2.50;2.30;;;;;;;;;;5015865;28;20408;-66
2022/07/08 02:19:40;;;;;;;2.73;2.00;;;;;;;;;;5015968;28;20412;-69
2022/07/08 02:22:07;;;;;;;2.53;2.10;;;;;;;;;;5015778;28;20412;-69
2022/07/08 02:24:33;;;;;;;2.13;2.03;;;;;;;;;;4998144;28;20420;-68
2022/07/08 02:26:58;;;;;;;3.57;2.00;;;;;;;;;;5015573;28;20495;-68
2022/07/08 02:29:24;;;;;;;2.40;2.30;;;;;;;;;;5015588;28;20822;-68
2022/07/08 02:31:50;;;;;;;2.47;2.37;;;;;;;;;;5015582;28;20413;-68
2022/07/08 02:34:16;;;;;;;1.93;1.83;;;;;;;;;;5015554;28;20447;-68
2022/07/08 02:36:42;;;;;;;2.30;2.10;;;;;;;;;;5015560;28;20423;-68
2022/07/08 02:39:08;;;;;;;2.40;2.20;;;;;;;;;;5015448;28;20416;-68
2022/07/08 02:41:38;;;;;;;3.40;2.33;;;;;;;;;;5015365;28;20420;-68
2022/07/08 02:44:04;;;;;;;2.60;2.30;;;;;;;;;;5015662;28;20408;-67
2022/07/08 02:46:30;;;;;;;2.60;2.10;;;;;;;;;;5015267;28;20515;-67
2022/07/08 02:48:56;;;;;;;2.67;2.47;;;;;;;;;;5015375;28;20413;-67
2022/07/08 02:51:22;;;;;;;2.27;2.17;;;;;;;;;;5015295;28;20486;-66
2022/07/08 02:53:48;;;;;;;2.40;2.20;;;;;;;;;;4997549;28;20472;-66
2022/07/08 02:56:15;;;;;;;5.70;3.03;;;;;;;;;;5015221;28;20413;-68
2022/07/08 02:58:40;;;;;;;3.43;2.43;;;;;;;;;;5015047;28;20409;-67
2022/07/08 03:01:06;;;;;;;3.20;2.40;;;;;;;;;;5015178;28;20748;-69
2022/07/08 03:03:33;;;;;;;3.37;2.30;;;;;;;;;;5014725;28;20948;-69
2022/07/08 03:05:58;;;;;;;2.50;2.40;;;;;;;;;;5014802;28;20415;-68
2022/07/08 03:08:24;;;;;;;2.30;2.30;;;;;;;;;;5014912;28;20430;-68
2022/07/08 03:10:51;;;;;;;2.30;2.20;;;;;;;;;;5014586;28;20420;-70
2022/07/08 03:13:17;;;;;;;2.60;2.30;;;;;;;;;;4997149;28;20792;-70
2022/07/08 03:15:43;;;;;;;2.77;2.67;;;;;;;;;;5014808;28;20475;-68
2022/07/08 03:18:09;;;;;;;2.00;2.00;;;;;;;;;;5014680;28;20507;-68
2022/07/08 03:20:35;;;;;;;3.37;2.63;;;;;;;;;;5014796;28;20929;-68
2022/07/08 03:23:01;;;;;;;5.23;2.20;;;;;;;;;;5014694;28;20507;-69
2022/07/08 03:25:29;;;;;;;2.03;1.93;;;;;;;;;;5014585;28;20412;-69
2022/07/08 03:27:55;;;;;;;2.00;1.90;;;;;;;;;;5014586;28;20491;-69
2022/07/08 03:30:21;;;;;;;6.73;2.40;;;;;;;;;;5014461;28;20884;-68
2022/07/08 03:32:47;;;;;;;4.97;2.43;;;;;;;;;;5014547;28;20507;-68
2022/07/08 03:35:13;;;;;;;7.20;2.40;;;;;;;;;;5014548;28;20408;-68
2022/07/08 03:37:42;;;;;;;3.13;2.57;;;;;;;;;;5014432;28;20759;-69
2022/07/08 03:42:53;;;;;;;6.90;2.70;;;;;;;;;;5014685;28;20393;-69
2022/07/08 03:45:19;;;;;;;5.90;2.77;;;;;;;;;;5014340;28;20412;-71
2022/07/08 03:47:45;;;;;;;2.97;2.70;;;;;;;;;;5014222;28;20475;-70
2022/07/08 03:50:12;;;;;;;2.63;2.50;;;;;;;;;;5014369;28;20409;-71
2022/07/08 03:52:38;;;;;;;2.73;2.50;;;;;;;;;;5014199;28;20427;-70
2022/07/08 03:55:04;;;;;;;5.00;2.80;;;;;;;;;;5014165;28;20416;-70
2022/07/08 03:57:30;;;;;;;4.17;3.73;;;;;;;;;;5014143;28;20885;-71
2022/07/08 03:59:56;;;;;;;4.20;3.80;;;;;;;;;;4996496;28;20437;-70
2022/07/08 04:02:22;;;;;;;7.53;4.03;;;;;;;;;;5014037;28;20511;-69
2022/07/08 04:04:48;;;;;;;9.40;5.40;;;;;;;;;;5013908;28;20487;-71
2022/07/08 04:07:15;;;;;;;4.33;3.50;;;;;;;;;;5013888;28;21053;-70
2022/07/08 04:09:41;;;;;;;8.60;6.00;;;;;;;;;;5013897;28;20428;-71
2022/07/08 04:12:08;;;;;;;3.70;3.40;;;;;;;;;;5013879;28;20758;-71
2022/07/08 04:14:34;;;;;;;8.37;4.40;;;;;;;;;;5013823;28;20775;-69
2022/07/08 04:17:00;;;;;;;7.10;3.77;;;;;;;;;;5013799;28;20414;-71
2022/07/08 04:19:25;;;;;;;5.20;3.83;;;;;;;;;;5013846;28;20410;-70
2022/07/08 04:21:51;;;;;;;6.00;3.83;;;;;;;;;;5013111;28;20452;-71
2022/07/08 04:24:18;;;;;;;5.73;4.07;;;;;;;;;;5013786;28;20415;-65
2022/07/08 04:26:44;;;;;;;15.00;4.83;;;;;;;;;;5013749;28;20482;-65
2022/07/08 04:29:10;;;;;;;27.20;9.50;;;;;;;;;;5013793;28;20409;-65
2022/07/08 04:31:36;;;;;;;18.23;9.33;;;;;;;;;;5013618;28;20421;-71
2022/07/08 04:34:02;;;;;;;26.47;8.17;;;;;;;;;;5013579;28;20463;-70
2022/07/08 04:36:28;;;;;;;11.67;4.60;;;;;;;;;;5013542;28;20487;-69
2022/07/08 04:38:54;;;;;;;5.33;4.47;;;;;;;;;;5013447;28;20425;-71
2022/07/08 04:41:20;;;;;;;9.57;4.57;;;;;;;;;;5013502;28;20435;-70
2022/07/08 04:43:46;;;;;;;6.90;4.60;;;;;;;;;;5013427;28;20462;-70
2022/07/08 04:46:12;;;;;;;11.73;4.30;;;;;;;;;;5013502;28;20554;-65
2022/07/08 04:48:39;;;;;;;8.97;4.07;;;;;;;;;;5013427;28;20422;-65
2022/07/08 04:51:05;;;;;;;10.27;4.53;;;;;;;;;;5013422;28;20415;-66
2022/07/08 04:53:31;;;;;;;7.03;4.23;;;;;;;;;;5013338;28;20932;-68
2022/07/08 04:55:57;;;;;;;6.47;4.63;;;;;;;;;;5013608;28;20403;-68
2022/07/08 04:58:23;;;;;;;6.40;4.17;;;;;;;;;;5013380;28;20876;-66
2022/07/08 05:00:49;;;;;;;5.93;4.57;;;;;;;;;;5013244;28;20408;-70
2022/07/08 05:03:15;;;;;;;5.27;4.77;;;;;;;;;;4995509;28;20437;-70
2022/07/08 05:05:41;;;;;;;4.67;4.27;;;;;;;;;;5013162;28;20421;-71
2022/07/08 05:08:07;;;;;;;9.10;4.30;;;;;;;;;;5013227;28;20475;-72
2022/07/08 05:10:33;;;;;;;7.47;4.67;;;;;;;;;;5013208;28;20419;-66
2022/07/08 05:12:59;;;;;;;6.67;4.37;;;;;;;;;;5013166;28;20412;-67
2022/07/08 05:15:26;;;;;;;10.70;4.20;;;;;;;;;;5013334;28;20414;-68
2022/07/08 05:17:55;;;;;;;9.67;4.10;;;;;;;;;;5013118;28;20454;-69
2022/07/08 05:20:21;;;;;;;6.50;4.90;;;;;;;;;;5013157;28;20412;-66
2022/07/08 05:22:47;;;;;;;5.47;4.30;;;;;;;;;;5013154;28;20416;-64
2022/07/08 05:25:13;;;;;;;7.73;4.30;;;;;;;;;;5013167;28;20903;-68
2022/07/08 05:27:40;;;;;;;6.17;4.50;;;;;;;;;;5013015;28;20970;-66
2022/07/08 05:30:10;;;;;;;6.67;4.40;;;;;;;;;;5013106;28;20751;-71
2022/07/08 05:32:36;;;;;;;9.30;4.03;;;;;;;;;;5013516;28;20419;-71
2022/07/08 05:35:03;;;;;;;12.80;4.23;;;;;;;;;;5016691;28;20411;-70
2022/07/08 05:37:29;;;;;;;10.53;4.00;;;;;;;;;;5016562;28;20410;-68
2022/07/08 05:39:55;;;;;;;7.80;4.37;;;;;;;;;;5016498;28;20776;-68
2022/07/08 05:42:21;;;;;;;4.43;3.50;;;;;;;;;;4998872;28;20431;-68
2022/07/08 05:44:47;;;;;;;7.10;3.50;;;;;;;;;;5016338;28;20474;-68
2022/07/08 05:47:13;;;;;;;5.67;3.50;;;;;;;;;;5016499;28;20477;-68
2022/07/08 05:49:43;;;;;;;6.13;3.50;;;;;;;;;;5016385;28;20408;-68
2022/07/08 05:52:09;;;;;;;6.03;3.90;;;;;;;;;;5016440;28;20871;-68
2022/07/08 05:54:35;;;;;;;4.43;4.00;;;;;;;;;;5016380;28;20451;-66
2022/07/08 05:57:01;;;;;;;7.00;3.40;;;;;;;;;;5016468;28;20420;-69
2022/07/08 05:59:27;;;;;;;9.53;3.83;;;;;;;;;;5016334;28;20422;-69
2022/07/08 06:01:54;;;;;;;9.87;3.47;;;;;;;;;;5016575;28;20423;-66
2022/07/08 06:04:20;;;;;;;10.30;4.13;;;;;;;;;;5016094;28;20460;-68
2022/07/08 06:06:46;;;;;;;5.23;3.20;;;;;;;;;;5016171;28;20518;-66
2022/07/08 06:09:12;;;;;;;6.70;3.40;;;;;;;;;;5016208;28;20423;-69
2022/07/08 06:11:38;;;;;;;11.67;3.57;;;;;;;;;;5016172;28;20890;-69
2022/07/08 06:14:04;;;;;;;6.97;3.67;;;;;;;;;;5016312;28;20838;-67
2022/07/08 06:16:30;;;;;;;4.37;3.50;;;;;;;;;;5016026;28;20510;-67
2022/07/08 06:18:56;;;;;;;12.27;4.03;;;;;;;;;;5015982;28;20421;-68
2022/07/08 06:21:22;;;;;;;10.67;3.80;;;;;;;;;;5015928;28;20479;-70
2022/07/08 06:23:48;;;;;;;9.80;3.20;;;;;;;;;;5015781;28;20431;-67
2022/07/08 06:26:14;;;;;;;8.60;3.30;;;;;;;;;;5015501;28;20900;-69
2022/07/08 06:28:40;;;;;;;12.10;3.87;;;;;;;;;;5015846;28;20509;-70
2022/07/08 06:31:06;;;;;;;12.43;4.00;;;;;;;;;;5015743;28;20413;-68
2022/07/08 06:33:32;;;;;;;11.33;3.47;;;;;;;;;;5015868;28;20415;-71
2022/07/08 06:35:59;;;;;;;6.63;3.43;;;;;;;;;;5015632;28;20409;-68
2022/07/08 06:38:25;;;;;;;9.07;3.27;;;;;;;;;;5015573;28;20421;-67
2022/07/08 06:40:51;;;;;;;4.80;3.30;;;;;;;;;;5015488;28;20427;-69
2022/07/08 06:43:17;;;;;;;3.83;2.90;;;;;;;;;;5015550;28;20416;-70
2022/07/08 06:45:44;;;;;;;8.13;3.63;;;;;;;;;;5014858;28;20466;-70
2022/07/08 06:48:10;;;;;;;4.60;2.97;;;;;;;;;;5015430;28;20534;-69
2022/07/08 06:50:37;;;;;;;4.80;2.97;;;;;;;;;;5015469;28;20934;-69
2022/07/08 06:53:03;;;;;;;5.93;3.23;;;;;;;;;;5015413;28;20771;-67
2022/07/08 06:55:29;;;;;;;6.97;3.50;;;;;;;;;;5015222;28;20416;-67
2022/07/08 06:57:55;;;;;;;7.67;3.50;;;;;;;;;;5015261;28;20883;-67
2022/07/08 07:00:24;;;;;;;9.93;3.47;;;;;;;;;;5015131;28;20413;-65
2022/07/08 07:02:50;;;;;;;4.10;3.00;;;;;;;;;;4997509;28;20975;-67
2022/07/08 07:05:17;;;;;;;7.43;3.80;;;;;;;;;;5014988;28;20554;-68
2022/07/08 07:07:43;;;;;;;4.93;3.00;;;;;;;;;;4997404;28;20992;-68
2022/07/08 07:10:09;;;;;;;5.13;3.27;;;;;;;;;;5015119;28;20508;-68
2022/07/08 07:12:35;;;;;;;5.30;3.43;;;;;;;;;;5014917;28;20406;-68
2022/07/08 07:15:01;;;;;;;5.13;3.30;;;;;;;;;;5014964;28;20476;-68
2022/07/08 07:17:27;;;;;;;3.20;2.90;;;;;;;;;;5014840;28;20409;-68
2022/07/08 07:19:53;;;;;;;10.03;3.23;;;;;;;;;;5014949;28;20492;-69
2022/07/08 07:22:19;;;;;;;7.47;3.67;;;;;;;;;;5014802;28;20432;-67
2022/07/08 07:24:45;;;;;;;4.77;3.07;;;;;;;;;;5014952;28;20447;-68
2022/07/08 07:27:11;;;;;;;5.97;2.90;;;;;;;;;;5014627;28;20894;-68
2022/07/08 07:29:37;;;;;;;5.17;2.83;;;;;;;;;;5014612;28;20471;-68
2022/07/08 07:32:03;;;;;;;4.90;2.80;;;;;;;;;;5014652;28;20426;-68
2022/07/08 07:34:29;;;;;;;5.07;2.70;;;;;;;;;;5014612;28;20415;-68
2022/07/08 07:36:55;;;;;;;5.20;2.90;;;;;;;;;;5014486;28;20401;-68
2022/07/08 07:39:21;;;;;;;4.70;3.53;;;;;;;;;;5014474;28;20423;-68
2022/07/08 07:41:47;;;;;;;6.63;3.40;;;;;;;;;;5014373;28;20415;-68
2022/07/08 07:44:13;;;;;;;10.13;2.90;;;;;;;;;;5014437;28;20443;-68
2022/07/08 07:46:39;;;;;;;6.83;3.20;;;;;;;;;;5014389;28;20478;-69
2022/07/08 07:49:06;;;;;;;3.20;3.00;;;;;;;;;;4996822;28;20920;-69
2022/07/08 07:51:32;;;;;;;6.13;2.53;;;;;;;;;;5014329;28;20416;-69
2022/07/08 07:53:58;;;;;;;5.60;2.93;;;;;;;;;;5014153;28;20457;-68
2022/07/08 07:56:24;;;;;;;3.63;3.30;;;;;;;;;;4995809;28;20914;-68
2022/07/08 07:58:50;;;;;;;5.60;2.93;;;;;;;;;;5014183;28;20397;-69
2022/07/08 08:01:16;;;;;;;4.43;2.87;;;;;;;;;;5014107;28;20414;-68
2022/07/08 08:03:42;;;;;;;6.73;3.37;;;;;;;;;;5013980;28;20476;-68
2022/07/08 08:06:08;;;;;;;6.43;3.40;;;;;;;;;;5014066;28;20445;-69
2022/07/08 08:08:36;;;;;;;4.93;3.43;;;;;;;;;;5014288;28;20474;-68
2022/07/08 08:11:02;;;;;;;11.30;3.00;;;;;;;;;;5013973;28;20553;-69
2022/07/08 08:13:28;;;;;;;5.00;2.93;;;;;;;;;;5013994;28;20423;-69
2022/07/08 08:15:55;;;;;;;5.70;3.00;;;;;;;;;;5013914;28;20428;-67
2022/07/08 08:18:21;;;;;;;3.43;3.10;;;;;;;;;;5013957;28;20409;-68
2022/07/08 08:20:47;;;;;;;4.20;3.03;;;;;;;;;;5013821;28;20459;-67
2022/07/08 08:23:13;;;;;;;4.73;3.10;;;;;;;;;;5014051;28;20436;-69
2022/07/08 08:25:39;;;;;;;6.63;3.67;;;;;;;;;;5013868;28;20794;-69
2022/07/08 08:28:05;;;;;;;4.10;3.20;;;;;;;;;;5013701;28;20558;-66
2022/07/08 08:30:31;;;;;;;3.37;3.17;;;;;;;;;;5013639;28;20482;-68
2022/07/08 08:32:58;;;;;;;3.43;3.13;;;;;;;;;;5013894;28;20416;-68
2022/07/08 08:35:24;;;;;;;4.40;2.80;;;;;;;;;;5013660;28;20961;-68
2022/07/08 08:37:51;;;;;;;14.70;3.33;;;;;;;;;;4995932;28;20421;-67
2022/07/08 08:40:19;;;;;;;4.30;2.73;;;;;;;;;;5013851;28;20424;-69
2022/07/08 08:42:45;;;;;;;6.67;3.47;;;;;;;;;;5013409;28;20451;-68
2022/07/08 08:45:11;;;;;;;5.47;3.07;;;;;;;;;;5013339;28;20515;-69
2022/07/08 08:47:38;;;;;;;3.47;2.60;;;;;;;;;;5013556;28;20823;-68
2022/07/08 08:52:51;;;;;;;3.83;2.50;;;;;;;;;;5013764;28;20404;-68
2022/07/08 08:55:27;;;;;;;2.77;2.57;;;;;;;;;;5013368;28;20424;-68
2022/07/08 08:57:57;;;;;;;4.13;2.63;;;;;;;;;;5013517;28;20760;-67
2022/07/08 09:00:24;;;;;;;6.77;2.60;;;;;;;;;;4995883;28;20425;-68
2022/07/08 09:02:50;;;;;;;9.07;2.80;;;;;;;;;;5013522;28;20397;-68
2022/07/08 09:05:16;;;;;;;6.53;2.60;;;;;;;;;;5013307;28;20458;-67
2022/07/08 09:07:43;;;;;;;5.40;2.07;;;;;;;;;;5014055;28;20573;-68
2022/07/08 09:10:11;;;;;;;8.17;2.60;;;;;;;;;;5017294;28;20450;-68
2022/07/08 09:12:37;;;;;;;8.10;3.13;;;;;;;;;;4999599;28;20424;-68
2022/07/08 09:15:04;;;;;;;6.03;2.40;;;;;;;;;;5017163;28;20516;-68
2022/07/08 09:17:30;;;;;;;4.57;2.53;;;;;;;;;;5017183;28;20409;-68
2022/07/08 09:19:56;;;;;;;5.27;2.70;;;;;;;;;;5017124;28;20415;-69
2022/07/08 09:22:23;;;;;;;4.63;2.50;;;;;;;;;;5017058;28;20474;-68
2022/07/08 09:24:49;;;;;;;4.63;2.53;;;;;;;;;;5016887;28;20456;-68
2022/07/08 09:27:16;;;;;;;7.73;2.30;;;;;;;;;;5016867;28;20481;-67
2022/07/08 09:30:01;;;;;;;4.77;2.80;;;;;;;;;;4999306;28;20922;-68
2022/07/08 09:32:27;;;;;;;4.20;2.50;;;;;;;;;;5016900;28;20454;-69
2022/07/08 09:34:53;;;;;;;2.30;2.20;;;;;;;;;;5016855;28;20406;-68
2022/07/08 09:37:20;;;;;;;2.77;2.23;;;;;;;;;;5016749;28;20413;-68
2022/07/08 09:39:47;;;;;;;3.07;2.33;;;;;;;;;;4999368;28;20769;-68
2022/07/08 09:42:14;;;;;;;3.47;2.77;;;;;;;;;;5016499;28;20410;-68
2022/07/08 09:44:40;;;;;;;2.60;2.37;;;;;;;;;;5016720;28;20397;-68
2022/07/08 09:47:13;;;;;;;2.90;2.50;;;;;;;;;;5016489;28;20987;-68
2022/07/08 09:49:40;;;;;;;6.83;2.37;;;;;;;;;;5016514;28;20890;-69
2022/07/08 09:52:06;;;;;;;4.17;2.27;;;;;;;;;;5016440;28;20416;-68
2022/07/08 09:54:32;;;;;;;3.53;2.70;;;;;;;;;;5016301;28;20828;-69
2022/07/08 09:56:58;;;;;;;5.20;2.97;;;;;;;;;;5016350;28;20479;-68
2022/07/08 09:59:24;;;;;;;14.87;2.53;;;;;;;;;;5016128;28;20407;-69
2022/07/08 10:01:52;;;;;;;3.73;2.50;;;;;;;;;;5016184;28;20414;-68
2022/07/08 10:04:24;;;;;;;4.33;2.60;;;;;;;;;;5016142;28;20466;-67
2022/07/08 10:06:51;;;;;;;3.80;2.23;;;;;;;;;;5016065;28;20465;-71
2022/07/08 10:09:17;;;;;;;7.80;2.87;;;;;;;;;;5016048;28;20915;-68
2022/07/08 10:11:44;;;;;;;4.10;2.10;;;;;;;;;;5016148;28;20431;-68
2022/07/08 10:14:10;;;;;;;5.30;2.40;;;;;;;;;;5016405;28;20428;-69
2022/07/08 10:16:39;;;;;;;5.47;2.03;;;;;;;;;;5015996;28;20407;-70
2022/07/08 10:19:07;;;;;;;6.00;2.30;;;;;;;;;;5015260;28;20415;-69
2022/07/08 10:21:34;;;;;;;2.73;2.00;;;;;;;;;;5015798;28;20408;-69
2022/07/08 10:24:01;;;;;;;12.23;2.60;;;;;;;;;;5015836;28;20502;-69
2022/07/08 10:26:38;;;;;;;5.00;2.40;;;;;;;;;;5015713;28;20459;-69
2022/07/08 10:29:05;;;;;;;3.67;1.70;;;;;;;;;;5015804;28;20411;-68
2022/07/08 10:31:40;;;;;;;2.93;1.80;;;;;;;;;;5015877;28;20400;-69
2022/07/08 10:34:07;;;;;;;5.13;2.10;;;;;;;;;;5015792;28;20455;-68
2022/07/08 10:36:53;;;;;;;4.50;2.33;;;;;;;;;;5015583;28;20415;-68
2022/07/08 10:39:25;;;;;;;7.00;2.70;;;;;;;;;;5015483;28;20826;-67
2022/07/08 10:42:02;;;;;;;6.30;2.47;;;;;;;;;;5015542;28;20443;-66
2022/07/08 10:44:44;;;;;;;8.37;2.90;;;;;;;;;;5015478;28;20436;-67
2022/07/08 10:47:10;;;;;;;2.23;2.00;;;;;;;;;;5015345;28;20462;-68
2022/07/08 10:49:43;;;;;;;7.70;3.17;;;;;;;;;;5015437;28;20403;-67
2022/07/08 10:52:09;;;;;;;4.03;3.00;;;;;;;;;;5015442;28;20427;-66
2022/07/08 10:54:37;;;;;;;5.43;3.00;;;;;;;;;;5015106;28;20422;-68
2022/07/08 10:57:07;;;;;;;4.80;2.40;;;;;;;;;;5015338;28;20403;-66
2022/07/08 10:59:35;;;;;;;6.43;2.33;;;;;;;;;;5015445;28;20416;-67
2022/07/08 11:02:08;;;;;;;10.13;2.40;;;;;;;;;;5015448;28;20412;-68
2022/07/08 11:04:34;;;;;;;4.30;2.47;;;;;;;;;;5014927;28;20476;-66
2022/07/08 11:07:15;;;;;;;6.00;2.83;;;;;;;;;;4997302;28;20482;-67
2022/07/08 11:09:42;;;;;;;2.30;2.20;;;;;;;;;;5014853;28;20407;-68
2022/07/08 11:12:11;;;;;;;3.70;2.47;;;;;;;;;;5014881;28;20913;-68
2022/07/08 11:14:41;;;;;;;6.40;2.40;;;;;;;;;;4997628;28;20504;-68
2022/07/08 11:17:13;;;;;;;2.70;2.13;;;;;;;;;;5014871;28;20406;-68
2022/07/08 11:19:41;;;;;;;11.03;2.67;;;;;;;;;;5014815;28;20407;-69
2022/07/08 11:22:07;;;;;;;4.17;2.33;;;;;;;;;;4997245;28;20835;-67
2022/07/08 11:24:33;;;;;;;2.27;2.17;;;;;;;;;;5014765;28;20424;-69
2022/07/08 11:26:59;;;;;;;5.07;2.30;;;;;;;;;;5014634;28;21034;-68
2022/07/08 11:29:25;;;;;;;6.20;2.40;;;;;;;;;;5014720;28;20461;-67
2022/07/08 11:31:58;;;;;;;7.53;2.90;;;;;;;;;;5014539;28;20391;-66
2022/07/08 11:34:27;;;;;;;2.83;2.63;;;;;;;;;;5014601;28;20403;-67
2022/07/08 11:36:56;;;;;;;5.33;2.30;;;;;;;;;;5014626;28;20493;-66
2022/07/08 11:39:22;;;;;;;3.23;2.90;;;;;;;;;;5014487;28;20416;-66
2022/07/08 11:41:48;;;;;;;6.67;2.60;;;;;;;;;;5014538;28;20431;-67
2022/07/08 11:44:20;;;;;;;4.30;2.90;;;;;;;;;;5014471;28;20955;-67
2022/07/08 11:46:47;;;;;;;2.80;2.47;;;;;;;;;;5014338;28;20471;-67
2022/07/08 11:49:14;;;;;;;6.97;2.90;;;;;;;;;;5014328;28;20501;-67
2022/07/08 11:51:44;;;;;;;2.83;2.30;;;;;;;;;;5014316;28;20881;-67
2022/07/08 11:54:10;;;;;;;6.67;2.80;;;;;;;;;;5014324;28;20409;-67
2022/07/08 11:56:36;;;;;;;4.60;2.80;;;;;;;;;;5014122;28;20914;-67
2022/07/08 11:59:02;;;;;;;7.90;3.27;;;;;;;;;;5014217;28;20495;-67
2022/07/08 12:01:28;;;;;;;3.97;2.30;;;;;;;;;;5014147;28;20414;-68
2022/07/08 12:03:54;;;;;;;7.70;2.50;;;;;;;;;;5014049;28;20996;-67
2022/07/08 12:06:24;;;;;;;4.30;2.50;;;;;;;;;;5014051;28;20426;-68
2022/07/08 12:08:50;;;;;;;3.90;2.50;;;;;;;;;;5014117;28;20420;-67
2022/07/08 12:11:20;;;;;;;3.33;2.50;;;;;;;;;;5014136;28;20416;-67
2022/07/08 12:13:47;;;;;;;3.30;2.80;;;;;;;;;;5013981;28;20911;-67
2022/07/08 12:16:28;;;;;;;4.73;2.73;;;;;;;;;;5013908;28;20401;-68
2022/07/08 12:18:55;;;;;;;3.83;2.80;;;;;;;;;;5013929;28;20481;-68
2022/07/08 12:21:21;;;;;;;2.70;2.50;;;;;;;;;;4996243;28;20803;-68
2022/07/08 12:24:00;;;;;;;2.80;2.60;;;;;;;;;;5013817;28;20413;-68
2022/07/08 12:26:26;;;;;;;5.33;2.63;;;;;;;;;;5013700;28;20411;-68
2022/07/08 12:28:52;;;;;;;4.90;2.63;;;;;;;;;;5013880;28;20450;-68
2022/07/08 12:31:31;;;;;;;2.73;2.20;;;;;;;;;;5013721;28;20453;-70
2022/07/08 12:34:04;;;;;;;8.87;2.90;;;;;;;;;;5013774;28;20831;-69
2022/07/08 12:36:32;;;;;;;2.80;2.60;;;;;;;;;;5013966;28;20503;-69
2022/07/08 12:38:58;;;;;;;2.87;2.60;;;;;;;;;;5013642;28;20412;-69
2022/07/08 12:41:24;;;;;;;9.73;2.63;;;;;;;;;;5013637;28;20421;-68
2022/07/08 12:43:51;;;;;;;2.10;2.00;;;;;;;;;;5013313;28;20455;-66
2022/07/08 12:46:17;;;;;;;5.70;2.50;;;;;;;;;;5013574;28;20410;-66
2022/07/08 12:48:42;;;;;;;2.83;2.20;;;;;;;;;;5013761;28;20438;-66
2022/07/08 12:51:08;;;;;;;3.47;2.40;;;;;;;;;;5013617;28;20423;-67
2022/07/08 12:53:34;;;;;;;2.77;2.43;;;;;;;;;;5013540;28;20416;-66
2022/07/08 12:56:00;;;;;;;6.63;2.37;;;;;;;;;;5013568;28;20511;-67
2022/07/08 12:58:27;;;;;;;7.63;2.57;;;;;;;;;;5013451;28;20492;-67
2022/07/08 13:00:53;;;;;;;5.97;2.93;;;;;;;;;;5013410;28;20456;-67
2022/07/08 13:03:19;;;;;;;5.43;2.43;;;;;;;;;;5013495;28;20461;-68
2022/07/08 13:05:45;;;;;;;4.80;2.03;;;;;;;;;;5013295;28;20524;-67
2022/07/08 13:08:11;;;;;;;7.57;2.70;;;;;;;;;;5013261;28;20485;-67
2022/07/08 13:10:37;;;;;;;9.13;3.17;;;;;;;;;;5013395;28;20412;-67
2022/07/08 13:13:06;;;;;;;17.27;2.50;;;;;;;;;;4995912;28;20463;-67
2022/07/08 13:15:34;;;;;;;3.63;2.37;;;;;;;;;;5013394;28;20412;-67
2022/07/08 13:18:00;;;;;;;5.80;2.37;;;;;;;;;;5013282;28;20446;-66
2022/07/08 13:20:26;;;;;;;13.87;2.50;;;;;;;;;;5013285;28;20409;-67
2022/07/08 13:22:52;;;;;;;4.80;2.33;;;;;;;;;;5013237;28;20491;-67
2022/07/08 13:25:18;;;;;;;5.63;2.07;;;;;;;;;;5013211;28;20427;-67
2022/07/08 13:27:45;;;;;;;2.23;2.13;;;;;;;;;;5013124;28;20472;-67
2022/07/08 13:30:11;;;;;;;3.73;2.40;;;;;;;;;;5013463;28;20411;-68
2022/07/08 13:32:38;;;;;;;2.90;2.03;;;;;;;;;;5013184;28;20408;-68
2022/07/08 13:35:04;;;;;;;3.27;2.17;;;;;;;;;;5013196;28;20413;-67
2022/07/08 13:37:30;;;;;;;2.00;1.90;;;;;;;;;;5013116;28;20442;-65
2022/07/08 13:39:56;;;;;;;3.20;2.40;;;;;;;;;;5013035;28;20420;-65
2022/07/08 13:42:23;;;;;;;5.10;2.40;;;;;;;;;;5013084;28;20443;-66
2022/07/08 13:44:49;;;;;;;2.33;2.07;;;;;;;;;;5013332;28;20419;-67
2022/07/08 13:47:14;;;;;;;6.90;2.30;;;;;;;;;;4995379;28;21001;-67
2022/07/08 13:49:40;;;;;;;4.20;2.40;;;;;;;;;;5012948;28;20414;-67
2022/07/08 13:52:06;;;;;;;2.50;2.30;;;;;;;;;;5013041;28;20442;-66
2022/07/08 13:54:32;;;;;;;4.00;2.20;;;;;;;;;;5013290;28;20425;-67
2022/07/08 13:56:58;;;;;;;2.90;2.00;;;;;;;;;;5016487;28;20861;-67
2022/07/08 13:59:24;;;;;;;3.07;2.20;;;;;;;;;;5016497;28;20515;-66
2022/07/08 14:01:50;;;;;;;10.80;2.33;;;;;;;;;;5016419;28;20432;-67
2022/07/08 14:04:16;;;;;;;2.40;2.20;;;;;;;;;;5016283;28;20578;-67
2022/07/08 14:06:42;;;;;;;2.43;2.17;;;;;;;;;;5016228;28;20467;-67
2022/07/08 14:09:08;;;;;;;2.50;2.20;;;;;;;;;;5016140;28;20774;-68
2022/07/08 14:11:34;;;;;;;2.63;2.20;;;;;;;;;;5016489;28;20397;-68
2022/07/08 14:14:01;;;;;;;6.33;2.67;;;;;;;;;;5016161;28;20808;-67
2022/07/08 14:16:27;;;;;;;6.47;2.07;;;;;;;;;;5016090;28;20406;-69
2022/07/08 14:18:53;;;;;;;5.13;2.40;;;;;;;;;;5016294;28;20503;-69
2022/07/08 14:21:19;;;;;;;2.93;2.00;;;;;;;;;;5015956;28;20504;-69
2022/07/08 14:23:45;;;;;;;3.10;2.00;;;;;;;;;;5016037;28;20399;-69
2022/07/08 14:26:11;;;;;;;3.00;1.80;;;;;;;;;;5015904;28;20515;-69
2022/07/08 14:28:37;;;;;;;4.97;1.97;;;;;;;;;;5015802;28;20522;-69
2022/07/08 14:31:05;;;;;;;2.00;1.90;;;;;;;;;;5015811;28;20404;-69
2022/07/08 14:33:31;;;;;;;3.70;1.93;;;;;;;;;;5015662;28;20463;-69
2022/07/08 14:35:59;;;;;;;3.40;2.07;;;;;;;;;;5015546;28;20444;-68
2022/07/08 14:38:25;;;;;;;3.27;1.97;;;;;;;;;;5015620;28;20386;-68
2022/07/08 14:40:51;;;;;;;4.60;1.70;;;;;;;;;;5015329;28;20936;-68
2022/07/08 14:43:18;;;;;;;3.87;2.30;;;;;;;;;;5015480;28;20432;-68
2022/07/08 14:45:45;;;;;;;2.47;2.10;;;;;;;;;;5015506;28;20412;-68